createdAt,value
2024-03-14T00:00:29.238Z,10.99
2024-03-14T00:01:08.139Z,10.91
2024-03-14T00:02:29.113Z,10.89
2024-03-14T00:03:08.137Z,10.99
2024-03-14T00:04:08.065Z,10.95
2024-03-14T00:05:29.110Z,10.88
2024-03-14T00:06:08.196Z,10.95
2024-03-14T00:07:29.005Z,10.89
2024-03-14T00:08:07.922Z,10.94
2024-03-14T00:09:07.979Z,10.96
2024-03-14T00:10:28.858Z,10.89
2024-03-14T00:11:07.945Z,10.89
2024-03-14T00:12:28.873Z,10.91
2024-03-14T00:13:07.817Z,10.88
2024-03-14T00:14:07.719Z,10.89
2024-03-14T00:15:28.866Z,10.86
2024-03-14T00:16:07.646Z,10.94
2024-03-14T00:17:28.760Z,10.89
2024-03-14T00:18:07.683Z,10.89
2024-03-14T00:19:07.622Z,10.89
2024-03-14T00:20:28.511Z,10.84
2024-03-14T00:21:07.553Z,10.76
2024-03-14T00:22:28.517Z,10.86
2024-03-14T00:23:07.449Z,10.86
2024-03-14T00:24:07.386Z,10.86
2024-03-14T00:25:28.377Z,10.77
2024-03-14T00:26:07.306Z,10.80
2024-03-14T00:27:28.325Z,10.74
2024-03-14T00:28:07.225Z,10.78
2024-03-14T00:29:07.241Z,10.77
2024-03-14T00:30:28.230Z,10.78
2024-03-14T00:31:07.123Z,10.77
2024-03-14T00:32:28.168Z,10.77
2024-03-14T00:33:07.086Z,10.76
2024-03-14T00:34:07.021Z,10.71
2024-03-14T00:35:28.014Z,10.74
2024-03-14T00:36:07.071Z,10.73
2024-03-14T00:37:27.961Z,10.71
2024-03-14T00:38:06.873Z,10.74
2024-03-14T00:39:06.963Z,10.74
2024-03-14T00:40:27.825Z,10.71
2024-03-14T00:41:06.817Z,10.71
2024-03-14T00:42:27.844Z,10.70
2024-03-14T00:43:06.699Z,10.66
2024-03-14T00:44:06.677Z,10.63
2024-03-14T00:45:27.764Z,10.62
2024-03-14T00:46:06.601Z,10.70
2024-03-14T00:47:27.607Z,10.70
2024-03-14T00:48:06.570Z,10.68
2024-03-14T00:49:06.580Z,10.68
2024-03-14T00:50:27.482Z,10.71
2024-03-14T00:51:06.526Z,10.63
2024-03-14T00:52:27.478Z,10.62
2024-03-14T00:53:06.378Z,10.66
2024-03-14T00:54:06.340Z,10.68
2024-03-14T00:55:27.352Z,10.70
2024-03-14T00:56:06.264Z,10.65
2024-03-14T00:57:27.292Z,10.63
2024-03-14T00:58:06.166Z,10.62
2024-03-14T00:59:06.194Z,10.59
2024-03-14T01:00:27.108Z,10.59
2024-03-14T01:01:06.170Z,10.53
2024-03-14T01:02:27.036Z,10.52
2024-03-14T01:03:06.072Z,10.58
2024-03-14T01:04:05.963Z,10.52
2024-03-14T01:05:26.990Z,10.44
2024-03-14T01:06:05.929Z,10.51
2024-03-14T01:07:26.881Z,10.44
2024-03-14T01:08:05.827Z,10.40
2024-03-14T01:09:05.853Z,10.51
2024-03-14T01:10:26.746Z,10.40
2024-03-14T01:11:05.803Z,10.44
2024-03-14T01:12:26.836Z,10.40
2024-03-14T01:13:05.654Z,10.42
2024-03-14T01:14:05.575Z,10.34
2024-03-14T01:15:26.638Z,10.39
2024-03-14T01:16:05.575Z,10.37
2024-03-14T01:17:26.514Z,10.39
2024-03-14T01:18:05.616Z,10.36
2024-03-14T01:19:05.502Z,10.33
2024-03-14T01:20:26.990Z,10.37
2024-03-14T01:21:05.423Z,10.39
2024-03-14T01:22:26.319Z,10.37
2024-03-14T01:23:05.363Z,10.42
2024-03-14T01:24:05.358Z,10.32
2024-03-14T01:25:26.246Z,10.30
2024-03-14T01:26:05.298Z,10.33
2024-03-14T01:27:26.231Z,10.33
2024-03-14T01:28:05.155Z,10.32
2024-03-14T01:29:05.132Z,10.36
2024-03-14T01:30:26.120Z,10.33
2024-03-14T01:31:05.052Z,10.22
2024-03-14T01:32:26.012Z,10.25
2024-03-14T01:33:05.024Z,10.21
2024-03-14T01:34:04.945Z,10.22
2024-03-14T01:35:25.910Z,10.17
2024-03-14T01:36:04.879Z,10.19
2024-03-14T01:37:25.805Z,10.15
2024-03-14T01:38:04.766Z,10.14
2024-03-14T01:39:04.806Z,10.14
2024-03-14T01:40:25.672Z,10.14
2024-03-14T01:41:04.696Z,10.06
2024-03-14T01:42:25.648Z,10.09
2024-03-14T01:43:04.676Z,10.10
2024-03-14T01:44:04.558Z,10.09
2024-03-14T01:45:25.646Z,10.07
2024-03-14T01:46:04.468Z,9.93
2024-03-14T01:47:25.480Z,10.01
2024-03-14T01:48:04.520Z,10.01
2024-03-14T01:49:04.556Z,9.99
2024-03-14T01:50:25.396Z,9.93
2024-03-14T01:51:04.377Z,9.99
2024-03-14T01:52:25.256Z,10.04
2024-03-14T01:53:04.237Z,10.00
2024-03-14T01:54:04.228Z,10.06
2024-03-14T01:55:25.157Z,10.03
2024-03-14T01:56:04.123Z,9.96
2024-03-14T01:57:25.223Z,10.00
2024-03-14T01:58:04.108Z,9.96
2024-03-14T01:59:04.039Z,9.94
2024-03-14T02:00:25.117Z,9.94
2024-03-14T02:01:04.004Z,9.99
2024-03-14T02:02:24.965Z,9.86
2024-03-14T02:03:03.970Z,9.94
2024-03-14T02:04:03.859Z,9.96
2024-03-14T02:05:24.842Z,9.94
2024-03-14T02:06:03.972Z,9.88
2024-03-14T02:07:24.784Z,9.97
2024-03-14T02:08:03.768Z,9.88
2024-03-14T02:09:03.760Z,9.85
2024-03-14T02:10:24.674Z,9.97
2024-03-14T02:11:03.606Z,9.81
2024-03-14T02:12:24.751Z,9.82
2024-03-14T02:13:03.518Z,9.94
2024-03-14T02:14:03.527Z,9.82
2024-03-14T02:15:24.625Z,9.88
2024-03-14T02:16:03.447Z,9.88
2024-03-14T02:17:24.367Z,9.79
2024-03-14T02:18:03.467Z,9.79
2024-03-14T02:19:03.324Z,9.86
2024-03-14T02:20:24.270Z,9.83
2024-03-14T02:21:03.269Z,9.83
2024-03-14T02:22:24.179Z,9.71
2024-03-14T02:23:03.163Z,9.71
2024-03-14T02:24:03.182Z,9.73
2024-03-14T02:25:24.094Z,9.71
2024-03-14T02:26:03.097Z,9.71
2024-03-14T02:27:24.032Z,9.70
2024-03-14T02:28:02.942Z,9.71
2024-03-14T02:29:02.970Z,9.76
2024-03-14T02:30:23.950Z,9.71
2024-03-14T02:31:02.946Z,9.70
2024-03-14T02:32:23.842Z,9.75
2024-03-14T02:33:02.926Z,9.70
2024-03-14T02:34:02.816Z,9.71
2024-03-14T02:35:23.807Z,9.64
2024-03-14T02:36:02.706Z,9.66
2024-03-14T02:37:23.705Z,9.66
2024-03-14T02:38:02.631Z,9.63
2024-03-14T02:39:02.683Z,9.58
2024-03-14T02:40:23.541Z,9.56
2024-03-14T02:41:02.562Z,9.56
2024-03-14T02:42:23.594Z,9.60
2024-03-14T02:43:02.427Z,9.63
2024-03-14T02:44:02.455Z,9.49
2024-03-14T02:45:23.472Z,9.49
2024-03-14T02:46:02.314Z,9.45
2024-03-14T02:47:23.336Z,9.56
2024-03-14T02:48:02.329Z,9.48
2024-03-14T02:49:02.383Z,9.46
2024-03-14T02:50:23.180Z,9.42
2024-03-14T02:51:02.209Z,9.46
2024-03-14T02:52:23.156Z,9.38
2024-03-14T02:53:02.121Z,9.42
2024-03-14T02:54:02.131Z,9.45
2024-03-14T02:55:23.001Z,9.28
2024-03-14T02:56:02.009Z,9.43
2024-03-14T02:57:23.065Z,9.43
2024-03-14T02:58:01.932Z,9.40
2024-03-14T02:59:01.931Z,9.39
2024-03-14T03:00:22.851Z,9.40
2024-03-14T03:01:01.861Z,9.40
2024-03-14T03:02:22.744Z,9.40
2024-03-14T03:03:01.761Z,9.30
2024-03-14T03:04:01.725Z,9.23
2024-03-14T03:05:22.642Z,9.27
2024-03-14T03:06:01.658Z,9.38
2024-03-14T03:07:22.562Z,9.23
2024-03-14T03:08:01.543Z,9.28
2024-03-14T03:09:01.613Z,9.24
2024-03-14T03:10:22.509Z,9.25
2024-03-14T03:11:01.426Z,9.25
2024-03-14T03:12:22.440Z,9.23
2024-03-14T03:13:01.437Z,9.25
2024-03-14T03:14:01.349Z,9.20
2024-03-14T03:15:22.371Z,9.15
2024-03-14T03:16:01.250Z,9.23
2024-03-14T03:17:22.227Z,9.21
2024-03-14T03:18:01.284Z,9.24
2024-03-14T03:19:01.248Z,9.21
2024-03-14T03:20:22.115Z,9.12
2024-03-14T03:21:01.194Z,9.12
2024-03-14T03:22:22.058Z,9.21
2024-03-14T03:23:01.066Z,9.10
2024-03-14T03:24:01.051Z,9.13
2024-03-14T03:25:21.985Z,9.13
2024-03-14T03:26:00.895Z,9.13
2024-03-14T03:27:21.947Z,9.12
2024-03-14T03:28:00.843Z,9.15
2024-03-14T03:29:00.790Z,9.15
2024-03-14T03:30:21.874Z,9.13
2024-03-14T03:31:00.719Z,9.13
2024-03-14T03:32:21.735Z,9.12
2024-03-14T03:33:00.735Z,9.13
2024-03-14T03:34:00.644Z,8.96
2024-03-14T03:35:22.458Z,9.04
2024-03-14T03:36:00.619Z,9.09
2024-03-14T03:37:21.494Z,8.94
2024-03-14T03:38:00.455Z,8.91
2024-03-14T03:39:00.496Z,9.06
2024-03-14T03:40:21.402Z,9.10
2024-03-14T03:41:00.380Z,8.99
2024-03-14T03:42:21.411Z,9.05
2024-03-14T03:43:00.327Z,8.97
2024-03-14T03:44:00.261Z,9.01
2024-03-14T03:45:21.281Z,8.94
2024-03-14T03:46:00.190Z,8.94
2024-03-14T03:47:21.164Z,9.02
2024-03-14T03:48:00.300Z,8.94
2024-03-14T03:49:00.201Z,8.99
2024-03-14T03:50:21.054Z,8.97
2024-03-14T03:51:00.061Z,8.99
2024-03-14T03:52:20.980Z,9.02
2024-03-14T03:52:59.975Z,9.05
2024-03-14T03:53:59.908Z,8.97
2024-03-14T03:55:20.845Z,9.01
2024-03-14T03:55:59.837Z,9.05
2024-03-14T03:57:20.893Z,8.94
2024-03-14T03:57:59.809Z,9.05
2024-03-14T03:58:59.777Z,8.94
2024-03-14T04:00:20.697Z,8.96
2024-03-14T04:00:59.696Z,9.01
2024-03-14T04:02:20.584Z,9.02
2024-03-14T04:02:59.615Z,8.99
2024-03-14T04:03:59.576Z,9.06
2024-03-14T04:05:20.500Z,8.94
2024-03-14T04:05:59.534Z,8.96
2024-03-14T04:07:20.407Z,9.02
2024-03-14T04:07:59.454Z,9.02
2024-03-14T04:08:59.524Z,8.91
2024-03-14T04:10:20.282Z,8.96
2024-03-14T04:10:59.428Z,8.99
2024-03-14T04:12:20.265Z,8.93
2024-03-14T04:12:59.212Z,8.91
2024-03-14T04:13:59.412Z,8.94
2024-03-14T04:15:20.194Z,8.94
2024-03-14T04:15:59.051Z,8.88
2024-03-14T04:17:20.072Z,8.91
2024-03-14T04:17:59.313Z,8.88
2024-03-14T04:18:59.148Z,8.93
2024-03-14T04:20:19.949Z,8.87
2024-03-14T04:20:59.035Z,8.88
2024-03-14T04:22:19.869Z,8.84
2024-03-14T04:22:58.899Z,8.81
2024-03-14T04:23:58.825Z,8.79
2024-03-14T04:25:19.791Z,8.81
2024-03-14T04:25:58.710Z,8.86
2024-03-14T04:27:19.715Z,8.86
2024-03-14T04:27:58.636Z,8.78
2024-03-14T04:28:58.637Z,8.76
2024-03-14T04:30:19.639Z,8.76
2024-03-14T04:30:58.566Z,8.79
2024-03-14T04:32:19.554Z,8.71
2024-03-14T04:32:58.604Z,8.69
2024-03-14T04:33:58.530Z,8.73
2024-03-14T04:35:19.438Z,8.66
2024-03-14T04:35:58.408Z,8.71
2024-03-14T04:37:19.307Z,8.73
2024-03-14T04:37:58.331Z,8.68
2024-03-14T04:38:58.327Z,8.72
2024-03-14T04:40:19.272Z,8.68
2024-03-14T04:40:58.173Z,8.69
2024-03-14T04:42:19.165Z,8.69
2024-03-14T04:42:58.121Z,8.71
2024-03-14T04:43:58.048Z,8.71
2024-03-14T04:45:19.046Z,8.68
2024-03-14T04:45:58.032Z,8.58
2024-03-14T04:47:18.992Z,8.55
2024-03-14T04:47:58.048Z,8.57
2024-03-14T04:48:57.958Z,8.57
2024-03-14T04:50:18.830Z,8.60
2024-03-14T04:50:57.856Z,8.66
2024-03-14T04:52:18.758Z,8.58
2024-03-14T04:52:57.780Z,8.60
2024-03-14T04:53:57.745Z,8.58
2024-03-14T04:55:18.985Z,8.72
2024-03-14T04:55:57.635Z,8.55
2024-03-14T04:57:18.685Z,8.58
2024-03-14T04:57:57.548Z,8.60
2024-03-14T04:58:57.547Z,8.68
2024-03-14T05:00:18.519Z,8.65
2024-03-14T05:00:57.527Z,8.55
2024-03-14T05:02:18.397Z,8.65
2024-03-14T05:02:57.434Z,8.68
2024-03-14T05:03:57.369Z,8.62
2024-03-14T05:05:18.282Z,8.55
2024-03-14T05:05:57.315Z,8.53
2024-03-14T05:07:18.255Z,8.54
2024-03-14T05:07:57.192Z,8.55
2024-03-14T05:08:57.235Z,8.57
2024-03-14T05:10:18.117Z,8.57
2024-03-14T05:10:57.157Z,8.55
2024-03-14T05:12:18.047Z,8.57
2024-03-14T05:12:57.042Z,8.57
2024-03-14T05:13:56.953Z,8.47
2024-03-14T05:15:18.439Z,8.51
2024-03-14T05:15:56.991Z,8.53
2024-03-14T05:17:17.892Z,8.44
2024-03-14T05:17:56.914Z,8.47
2024-03-14T05:18:56.829Z,8.45
2024-03-14T05:20:18.022Z,8.42
2024-03-14T05:20:56.792Z,8.54
2024-03-14T05:22:17.732Z,8.47
2024-03-14T05:22:56.643Z,8.51
2024-03-14T05:23:56.630Z,8.37
2024-03-14T05:25:17.565Z,8.42
2024-03-14T05:25:56.522Z,8.47
2024-03-14T05:27:17.535Z,8.47
2024-03-14T05:27:56.479Z,8.47
2024-03-14T05:28:56.434Z,8.39
2024-03-14T05:30:17.407Z,8.48
2024-03-14T05:30:56.345Z,8.50
2024-03-14T05:32:17.332Z,8.39
2024-03-14T05:32:56.366Z,8.45
2024-03-14T05:33:56.266Z,8.40
2024-03-14T05:35:17.257Z,8.39
2024-03-14T05:35:56.161Z,8.35
2024-03-14T05:37:17.159Z,8.36
2024-03-14T05:37:56.083Z,8.36
2024-03-14T05:38:56.109Z,8.37
2024-03-14T05:40:17.009Z,8.36
2024-03-14T05:40:55.978Z,8.21
2024-03-14T05:42:17.008Z,8.21
2024-03-14T05:42:55.980Z,8.32
2024-03-14T05:43:55.874Z,8.29
2024-03-14T05:45:16.874Z,8.30
2024-03-14T05:45:55.838Z,8.28
2024-03-14T05:47:16.835Z,8.21
2024-03-14T05:47:55.816Z,8.36
2024-03-14T05:48:55.761Z,8.32
2024-03-14T05:50:16.720Z,8.30
2024-03-14T05:50:55.643Z,8.21
2024-03-14T05:52:16.710Z,8.21
2024-03-14T05:52:55.527Z,8.22
2024-03-14T05:53:55.538Z,8.26
2024-03-14T05:55:16.502Z,8.17
2024-03-14T05:55:55.460Z,8.15
2024-03-14T05:57:16.586Z,8.08
2024-03-14T05:57:55.340Z,8.14
2024-03-14T05:58:55.353Z,8.12
2024-03-14T06:00:16.337Z,8.07
2024-03-14T06:00:55.292Z,8.00
2024-03-14T06:02:16.182Z,8.12
2024-03-14T06:02:55.190Z,8.12
2024-03-14T06:03:55.661Z,7.96
2024-03-14T06:05:16.104Z,8.04
2024-03-14T06:05:55.163Z,7.96
2024-03-14T06:07:17.052Z,7.96
2024-03-14T06:07:55.027Z,7.99
2024-03-14T06:08:54.985Z,7.93
2024-03-14T06:10:15.925Z,8.02
2024-03-14T06:10:54.867Z,7.90
2024-03-14T06:12:15.839Z,8.04
2024-03-14T06:12:54.818Z,7.97
2024-03-14T06:13:54.735Z,8.02
2024-03-14T06:15:15.814Z,8.04
2024-03-14T06:15:54.677Z,7.90
2024-03-14T06:17:15.655Z,7.96
2024-03-14T06:17:54.746Z,7.97
2024-03-14T06:18:54.712Z,7.89
2024-03-14T06:20:15.557Z,8.02
2024-03-14T06:20:54.519Z,7.92
2024-03-14T06:22:15.472Z,7.94
2024-03-14T06:22:54.562Z,7.93
2024-03-14T06:23:54.450Z,7.90
2024-03-14T06:25:15.407Z,7.87
2024-03-14T06:25:54.318Z,7.92
2024-03-14T06:27:15.373Z,7.92
2024-03-14T06:27:54.250Z,7.92
2024-03-14T06:28:54.271Z,8.02
2024-03-14T06:30:17.631Z,7.93
2024-03-14T06:30:54.261Z,7.97
2024-03-14T06:32:15.125Z,8.02
2024-03-14T06:32:54.155Z,8.02
2024-03-14T06:33:54.156Z,8.00
2024-03-14T06:35:14.991Z,8.07
2024-03-14T06:35:54.517Z,8.10
2024-03-14T06:37:14.905Z,8.10
2024-03-14T06:37:53.875Z,8.11
2024-03-14T06:38:53.886Z,8.10
2024-03-14T06:40:14.780Z,8.10
2024-03-14T06:40:53.753Z,8.17
2024-03-14T06:42:14.705Z,8.17
2024-03-14T06:42:53.747Z,8.12
2024-03-14T06:43:53.658Z,8.12
2024-03-14T06:45:14.772Z,8.20
2024-03-14T06:45:53.605Z,8.26
2024-03-14T06:47:14.543Z,8.20
2024-03-14T06:47:53.639Z,8.26
2024-03-14T06:48:53.514Z,8.26
2024-03-14T06:50:14.586Z,8.25
2024-03-14T06:50:53.446Z,8.36
2024-03-14T06:52:14.364Z,8.30
2024-03-14T06:52:53.303Z,8.44
2024-03-14T06:53:53.394Z,8.44
2024-03-14T06:55:14.430Z,8.44
2024-03-14T06:55:53.250Z,8.45
2024-03-14T06:57:14.239Z,8.48
2024-03-14T06:57:53.145Z,8.47
2024-03-14T06:58:53.103Z,8.42
2024-03-14T07:00:14.674Z,8.57
2024-03-14T07:00:53.109Z,8.57
2024-03-14T07:02:14.044Z,8.54
2024-03-14T07:02:53.014Z,8.62
2024-03-14T07:03:52.994Z,8.60
2024-03-14T07:05:13.894Z,8.68
2024-03-14T07:05:52.917Z,8.60
2024-03-14T07:07:13.807Z,8.71
2024-03-14T07:07:52.804Z,8.73
2024-03-14T07:08:52.801Z,8.78
2024-03-14T07:10:13.659Z,8.73
2024-03-14T07:10:52.679Z,8.78
2024-03-14T07:12:13.668Z,8.81
2024-03-14T07:12:52.621Z,8.86
2024-03-14T07:13:52.577Z,8.86
2024-03-14T07:15:13.540Z,8.84
2024-03-14T07:15:52.482Z,8.87
2024-03-14T07:17:13.451Z,8.93
2024-03-14T07:17:53.624Z,8.91
2024-03-14T07:18:52.579Z,9.05
2024-03-14T07:20:13.327Z,8.94
2024-03-14T07:20:52.314Z,8.99
2024-03-14T07:22:13.243Z,9.12
2024-03-14T07:22:52.260Z,9.09
2024-03-14T07:23:52.280Z,9.12
2024-03-14T07:25:13.939Z,9.18
2024-03-14T07:25:52.125Z,9.10
2024-03-14T07:27:13.138Z,9.13
2024-03-14T07:27:52.056Z,9.15
2024-03-14T07:28:52.051Z,9.24
2024-03-14T07:30:13.019Z,9.20
2024-03-14T07:30:51.941Z,9.25
2024-03-14T07:32:12.898Z,9.30
2024-03-14T07:32:51.971Z,9.31
2024-03-14T07:33:51.838Z,9.27
2024-03-14T07:35:15.711Z,9.38
2024-03-14T07:35:51.780Z,9.39
2024-03-14T07:37:12.754Z,9.30
2024-03-14T07:37:51.735Z,9.42
2024-03-14T07:38:51.759Z,9.45
2024-03-14T07:40:12.671Z,9.50
2024-03-14T07:40:51.586Z,9.43
2024-03-14T07:42:12.643Z,9.53
2024-03-14T07:42:51.479Z,9.56
2024-03-14T07:44:00.316Z,9.53
2024-03-14T07:45:12.512Z,9.64
2024-03-14T07:45:51.393Z,9.68
2024-03-14T07:47:12.388Z,9.63
2024-03-14T07:47:51.378Z,9.64
2024-03-14T07:48:51.345Z,9.66
2024-03-14T07:50:12.243Z,9.73
2024-03-14T07:50:51.250Z,9.71
2024-03-14T07:52:12.231Z,9.78
2024-03-14T07:52:51.146Z,9.75
2024-03-14T07:53:51.098Z,9.89
2024-03-14T07:55:12.093Z,9.73
2024-03-14T07:55:51.031Z,9.85
2024-03-14T07:57:12.087Z,9.93
2024-03-14T07:57:50.964Z,9.93
2024-03-14T07:58:50.916Z,9.96
2024-03-14T08:00:11.960Z,10.03
2024-03-14T08:00:50.993Z,9.97
2024-03-14T08:02:11.851Z,10.01
2024-03-14T08:02:50.813Z,9.99
2024-03-14T08:03:50.749Z,10.01
2024-03-14T08:05:11.729Z,10.10
2024-03-14T08:05:50.738Z,10.09
2024-03-14T08:07:11.628Z,10.07
2024-03-14T08:07:58.208Z,10.15
2024-03-14T08:08:50.651Z,10.18
2024-03-14T08:10:11.562Z,10.21
2024-03-14T08:10:50.514Z,10.19
2024-03-14T08:12:11.692Z,10.32
2024-03-14T08:12:50.405Z,10.28
2024-03-14T08:13:50.448Z,10.30
2024-03-14T08:15:11.387Z,10.34
2024-03-14T08:15:50.382Z,10.33
2024-03-14T08:17:11.293Z,10.33
2024-03-14T08:17:50.367Z,10.43
2024-03-14T08:18:50.240Z,10.33
2024-03-14T08:20:11.195Z,10.33
2024-03-14T08:20:50.153Z,10.34
2024-03-14T08:22:11.113Z,10.36
2024-03-14T08:22:50.126Z,10.34
2024-03-14T08:23:50.134Z,10.46
2024-03-14T08:25:11.044Z,10.43
2024-03-14T08:25:50.027Z,10.47
2024-03-14T08:27:11.027Z,10.55
2024-03-14T08:27:49.918Z,10.51
2024-03-14T08:28:49.919Z,10.52
2024-03-14T08:30:10.897Z,10.56
2024-03-14T08:30:49.830Z,10.65
2024-03-14T08:32:10.755Z,10.62
2024-03-14T08:32:49.829Z,10.63
2024-03-14T08:33:49.772Z,10.71
2024-03-14T08:35:10.641Z,10.66
2024-03-14T08:35:49.660Z,10.71
2024-03-14T08:37:10.620Z,10.81
2024-03-14T08:37:49.515Z,10.76
2024-03-14T08:38:49.585Z,10.77
2024-03-14T08:40:10.473Z,10.92
2024-03-14T08:40:49.617Z,10.89
2024-03-14T08:42:10.415Z,10.94
2024-03-14T08:42:53.023Z,10.91
2024-03-14T08:43:49.329Z,11.06
2024-03-14T08:45:10.454Z,11.10
2024-03-14T08:45:49.341Z,11.09
2024-03-14T08:47:10.236Z,11.09
2024-03-14T08:47:49.256Z,11.17
2024-03-14T08:48:49.227Z,11.16
2024-03-14T08:50:10.133Z,11.19
2024-03-14T08:50:49.098Z,11.20
2024-03-14T08:52:10.050Z,11.29
2024-03-14T08:52:49.016Z,11.29
2024-03-14T08:53:48.977Z,11.25
2024-03-14T08:55:09.950Z,11.29
2024-03-14T08:55:48.912Z,11.32
2024-03-14T08:57:09.908Z,11.41
2024-03-14T08:57:48.899Z,11.50
2024-03-14T08:58:48.838Z,11.50
2024-03-14T09:00:09.867Z,11.54
2024-03-14T09:00:48.935Z,11.56
2024-03-14T09:02:09.738Z,11.64
2024-03-14T09:02:48.696Z,11.67
2024-03-14T09:03:48.732Z,11.74
2024-03-14T09:05:09.627Z,11.74
2024-03-14T09:05:48.567Z,11.75
2024-03-14T09:07:09.551Z,11.85
2024-03-14T09:07:48.526Z,11.75
2024-03-14T09:08:48.522Z,11.82
2024-03-14T09:10:09.476Z,11.80
2024-03-14T09:10:48.456Z,11.83
2024-03-14T09:12:09.441Z,11.89
2024-03-14T09:12:48.355Z,11.94
2024-03-14T09:13:48.314Z,12.01
2024-03-14T09:15:09.309Z,11.97
2024-03-14T09:15:48.276Z,12.04
2024-03-14T09:17:09.216Z,11.96
2024-03-14T09:17:48.177Z,11.94
2024-03-14T09:18:48.152Z,11.99
2024-03-14T09:20:09.076Z,12.08
2024-03-14T09:20:48.084Z,12.02
2024-03-14T09:22:08.998Z,12.13
2024-03-14T09:22:48.002Z,12.12
2024-03-14T09:23:48.913Z,12.21
2024-03-14T09:25:08.935Z,12.20
2024-03-14T09:25:47.885Z,12.16
2024-03-14T09:27:08.922Z,12.21
2024-03-14T09:27:47.806Z,12.20
2024-03-14T09:28:47.813Z,12.24
2024-03-14T09:30:08.809Z,12.30
2024-03-14T09:30:47.947Z,12.29
2024-03-14T09:32:08.653Z,12.30
2024-03-14T09:32:47.692Z,12.38
2024-03-14T09:33:47.672Z,12.42
2024-03-14T09:35:08.597Z,12.57
2024-03-14T09:35:47.897Z,12.56
2024-03-14T09:37:08.526Z,12.59
2024-03-14T09:37:47.508Z,12.62
2024-03-14T09:38:47.511Z,12.57
2024-03-14T09:40:08.413Z,12.66
2024-03-14T09:40:47.366Z,12.67
2024-03-14T09:42:08.423Z,12.75
2024-03-14T09:42:47.437Z,12.77
2024-03-14T09:43:47.298Z,12.84
2024-03-14T09:45:08.211Z,12.85
2024-03-14T09:45:47.264Z,12.84
2024-03-14T09:47:08.375Z,12.95
2024-03-14T09:47:47.151Z,12.85
2024-03-14T09:48:47.239Z,12.97
2024-03-14T09:50:08.041Z,12.97
2024-03-14T09:50:46.998Z,13.00
2024-03-14T09:52:08.024Z,13.07
2024-03-14T09:52:46.977Z,13.14
2024-03-14T09:53:46.922Z,13.15
2024-03-14T09:55:07.937Z,13.14
2024-03-14T09:55:46.876Z,13.17
2024-03-14T09:57:07.849Z,13.24
2024-03-14T09:57:46.786Z,13.24
2024-03-14T09:58:47.647Z,13.27
2024-03-14T10:00:07.846Z,13.21
2024-03-14T10:00:46.747Z,13.33
2024-03-14T10:02:07.702Z,13.40
2024-03-14T10:02:46.668Z,13.41
2024-03-14T10:03:46.600Z,13.41
2024-03-14T10:05:07.577Z,13.49
2024-03-14T10:05:46.516Z,13.46
2024-03-14T10:07:08.087Z,13.52
2024-03-14T10:07:46.614Z,13.58
2024-03-14T10:08:46.428Z,13.55
2024-03-14T10:10:07.497Z,13.55
2024-03-14T10:10:46.388Z,13.62
2024-03-14T10:12:07.435Z,13.71
2024-03-14T10:12:46.405Z,13.71
2024-03-14T10:13:46.253Z,13.73
2024-03-14T10:15:07.294Z,13.73
2024-03-14T10:15:46.280Z,13.83
2024-03-14T10:17:07.170Z,13.94
2024-03-14T10:17:46.198Z,13.89
2024-03-14T10:18:46.151Z,13.99
2024-03-14T10:20:07.068Z,14.07
2024-03-14T10:20:46.032Z,14.19
2024-03-14T10:22:06.977Z,14.24
2024-03-14T10:22:45.958Z,14.21
2024-03-14T10:23:46.028Z,14.29
2024-03-14T10:25:06.891Z,14.37
2024-03-14T10:25:45.835Z,14.43
2024-03-14T10:27:06.809Z,14.49
2024-03-14T10:27:53.629Z,14.42
2024-03-14T10:28:45.795Z,14.60
2024-03-14T10:30:06.726Z,14.50
2024-03-14T10:30:45.725Z,14.56
2024-03-14T10:32:06.721Z,14.49
2024-03-14T10:32:45.644Z,14.54
2024-03-14T10:33:45.920Z,14.56
2024-03-14T10:35:06.642Z,14.56
2024-03-14T10:35:45.510Z,14.52
2024-03-14T10:37:06.714Z,14.57
2024-03-14T10:37:45.456Z,14.57
2024-03-14T10:38:45.687Z,14.56
2024-03-14T10:40:06.485Z,14.50
2024-03-14T10:40:45.423Z,14.52
2024-03-14T10:42:06.361Z,14.44
2024-03-14T10:42:45.413Z,14.47
2024-03-14T10:43:45.351Z,14.46
2024-03-14T10:45:06.871Z,14.54
2024-03-14T10:45:45.330Z,14.62
2024-03-14T10:47:06.238Z,14.74
2024-03-14T10:47:45.231Z,14.78
2024-03-14T10:48:45.268Z,14.91
2024-03-14T10:50:06.088Z,15.03
2024-03-14T10:50:45.104Z,15.11
2024-03-14T10:52:06.024Z,15.23
2024-03-14T10:52:45.047Z,15.28
2024-03-14T10:53:45.054Z,15.41
2024-03-14T10:55:05.997Z,15.46
2024-03-14T10:55:44.896Z,15.63
2024-03-14T10:57:05.942Z,15.75
2024-03-14T10:57:44.904Z,15.75
2024-03-14T10:58:44.846Z,15.76
2024-03-14T11:00:05.887Z,15.82
2024-03-14T11:00:44.895Z,15.92
2024-03-14T11:02:05.857Z,15.96
2024-03-14T11:02:44.658Z,15.97
2024-03-14T11:03:44.778Z,16.03
2024-03-14T11:05:05.679Z,16.12
2024-03-14T11:05:44.742Z,16.30
2024-03-14T11:07:05.663Z,16.30
2024-03-14T11:07:44.578Z,16.42
2024-03-14T11:08:44.758Z,16.50
2024-03-14T11:10:05.547Z,16.55
2024-03-14T11:10:44.509Z,16.50
2024-03-14T11:12:05.543Z,16.67
2024-03-14T11:12:44.457Z,16.71
2024-03-14T11:13:44.417Z,16.81
2024-03-14T11:15:05.569Z,16.86
2024-03-14T11:15:44.411Z,16.92
2024-03-14T11:17:05.389Z,17.04
2024-03-14T11:17:44.412Z,16.99
2024-03-14T11:18:44.280Z,17.14
2024-03-14T11:20:05.306Z,17.23
2024-03-14T11:20:44.203Z,17.15
2024-03-14T11:22:05.137Z,17.29
2024-03-14T11:22:44.339Z,17.33
2024-03-14T11:23:44.140Z,17.35
2024-03-14T11:25:05.046Z,17.48
2024-03-14T11:25:44.140Z,17.51
2024-03-14T11:27:05.037Z,17.57
2024-03-14T11:27:44.077Z,17.63
2024-03-14T11:28:43.973Z,17.78
2024-03-14T11:30:05.523Z,17.63
2024-03-14T11:30:43.949Z,17.81
2024-03-14T11:32:04.896Z,17.82
2024-03-14T11:32:43.951Z,17.92
2024-03-14T11:33:43.918Z,17.94
2024-03-14T11:35:04.790Z,18.13
2024-03-14T11:35:43.793Z,18.15
2024-03-14T11:37:04.785Z,18.34
2024-03-14T11:37:43.736Z,18.29
2024-03-14T11:38:43.766Z,18.27
2024-03-14T11:40:04.695Z,18.36
2024-03-14T11:40:43.647Z,18.43
2024-03-14T11:42:04.667Z,18.49
2024-03-14T11:42:43.713Z,18.50
2024-03-14T11:43:43.573Z,18.67
2024-03-14T11:45:04.619Z,18.72
2024-03-14T11:45:43.671Z,18.86
2024-03-14T11:47:04.476Z,18.61
2024-03-14T11:47:43.635Z,18.73
2024-03-14T11:48:43.484Z,18.76
2024-03-14T11:50:04.417Z,18.80
2024-03-14T11:50:43.433Z,18.87
2024-03-14T11:52:04.366Z,18.86
2024-03-14T11:52:43.660Z,19.05
2024-03-14T11:53:43.291Z,19.05
2024-03-14T11:55:04.286Z,18.99
2024-03-14T11:55:47.752Z,18.83
2024-03-14T11:57:04.263Z,18.86
2024-03-14T11:57:43.169Z,18.95
2024-03-14T11:58:43.832Z,18.91
2024-03-14T12:00:08.117Z,18.99
2024-03-14T12:00:43.154Z,19.01
2024-03-14T12:02:08.629Z,19.08
2024-03-14T12:02:43.061Z,19.17
2024-03-14T12:03:43.017Z,19.31
2024-03-14T12:05:04.041Z,19.43
2024-03-14T12:05:43.010Z,19.51
2024-03-14T12:07:04.026Z,19.57
2024-03-14T12:07:42.958Z,19.69
2024-03-14T12:08:42.978Z,19.57
2024-03-14T12:10:03.916Z,19.61
2024-03-14T12:10:42.889Z,19.60
2024-03-14T12:12:03.873Z,19.76
2024-03-14T12:12:42.845Z,19.76
2024-03-14T12:13:42.826Z,19.75
2024-03-14T12:15:03.768Z,19.78
2024-03-14T12:15:42.803Z,19.90
2024-03-14T12:17:03.706Z,19.88
2024-03-14T12:17:42.705Z,19.83
2024-03-14T12:18:42.686Z,19.94
2024-03-14T12:20:03.661Z,19.87
2024-03-14T12:20:42.590Z,19.95
2024-03-14T12:22:03.527Z,19.90
2024-03-14T12:22:42.550Z,19.88
2024-03-14T12:23:42.544Z,19.98
2024-03-14T12:25:03.503Z,20.06
2024-03-14T12:25:42.443Z,20.15
2024-03-14T12:27:03.435Z,20.25
2024-03-14T12:27:42.470Z,20.08
2024-03-14T12:28:42.448Z,20.09
2024-03-14T12:30:03.376Z,20.21
2024-03-14T12:30:42.409Z,20.27
2024-03-14T12:32:03.307Z,20.28
2024-03-14T12:32:42.265Z,20.41
2024-03-14T12:33:42.192Z,20.42
2024-03-14T12:35:03.269Z,20.46
2024-03-14T12:35:42.222Z,20.47
2024-03-14T12:37:03.172Z,20.34
2024-03-14T12:37:42.135Z,20.41
2024-03-14T12:38:42.623Z,20.42
2024-03-14T12:40:03.094Z,20.34
2024-03-14T12:40:42.104Z,20.53
2024-03-14T12:42:03.050Z,20.49
2024-03-14T12:42:42.050Z,20.47
2024-03-14T12:43:41.994Z,20.62
2024-03-14T12:45:03.019Z,20.62
2024-03-14T12:45:41.954Z,20.64
2024-03-14T12:47:02.933Z,20.77
2024-03-14T12:47:41.889Z,20.79
2024-03-14T12:48:41.903Z,20.80
2024-03-14T12:50:02.802Z,20.77
2024-03-14T12:50:43.877Z,20.84
2024-03-14T12:52:02.798Z,20.79
2024-03-14T12:52:41.774Z,20.76
2024-03-14T12:53:41.724Z,20.76
2024-03-14T12:55:02.704Z,20.81
2024-03-14T12:55:41.682Z,20.98
2024-03-14T12:57:02.603Z,21.13
2024-03-14T12:57:41.640Z,21.01
2024-03-14T12:58:41.574Z,21.21
2024-03-14T13:00:02.599Z,21.16
2024-03-14T13:00:41.623Z,21.13
2024-03-14T13:02:02.508Z,21.08
2024-03-14T13:02:41.507Z,21.14
2024-03-14T13:03:41.475Z,21.17